Latest Coastal Weather Observations for Alva Beach

IDQ60701

Issued at 1:02 am EST Thursday 11 August 2022 (issued every 10 minutes, with the page automatically refreshed every 10 minutes)

About coastal observations | Map of coastal stations | Coastal observations for QLD | Marine services | Other Formats
Station Details ID: 033295 Name: ALVA BEACH Lat: -19.46 Lon: 147.48 Height: 7.5 m
Data from the previous 72 hours. | See also: Recent months at Alva Beach
Date/Time
EST
Wind Sea
Height
m
Swell Vis
km
Cloud Weather Temp
°C
Press
MSL
hPa
Rain since
9am
mm
Dir  Spd
kts
Gust
kts
Height
m
Period
s
Dir
11/01:00am ESE 9 16 - - - - - - - 19.7 1019.7 0.0
11/12:30am ESE 10 16 - - - - - - - 19.6 1019.8 0.0
11/12:00am ESE 11 16 - - - - - - - 19.8 1020.1 0.0
 
Date/Time
EST
Wind Sea
Height
m
Swell Vis
km
Cloud Weather Temp
°C
Press
MSL
hPa
Rain since
9am
mm
Dir  Spd
kts
Gust
kts
Height
m
Period
s
Dir
10/11:30pm ESE 11 17 - - - - - - - 19.8 1020.4 0.0
10/11:00pm ESE 11 17 - - - - - - - 19.7 1020.5 0.0
10/10:30pm ESE 12 17 - - - - - - - 19.7 1020.7 0.0
10/10:00pm ESE 10 15 - - - - - - - 19.7 1020.8 0.0
10/09:30pm ESE 11 18 - - - - - - - 19.9 1020.9 0.0
10/09:00pm ESE 11 17 - - - - - - - 20.2 1020.9 0.0
10/08:30pm ESE 13 20 - - - - - - - 20.2 1020.6 0.0
10/08:00pm ESE 13 19 - - - - - - - 20.2 1020.3 0.0
10/07:30pm ESE 15 22 - - - - - - - 20.2 1020.1 0.0
10/07:00pm E 15 23 - - - - - - - 20.1 1019.8 0.0
10/06:30pm ESE 13 19 - - - - - - - 20.1 1019.4 0.0
10/06:00pm ESE 13 21 - - - - - - - 20.1 1019.1 0.0
10/05:30pm E 13 20 - - - - - - - 20.2 1018.8 0.0
10/05:00pm E 12 17 - - - - - - - 20.6 1018.4 0.0
10/04:30pm E 13 19 - - - - - - - 21.1 1018.1 0.0
10/04:00pm E 13 18 - - - - - - - 21.3 1018.0 0.0
10/03:30pm E 13 18 - - - - - - - 21.6 1018.1 0.0
10/03:00pm E 13 19 - - - - - - - 21.9 1018.1 0.0
10/02:30pm E 12 18 - - - - - - - 22.3 1018.3 0.0
10/02:00pm ESE 11 17 - - - - - - - 22.5 1018.8 0.0
10/01:30pm ESE 11 16 - - - - - - - 22.4 1019.2 0.0
10/01:00pm ESE 11 16 - - - - - - - 22.4 1019.6 0.0
10/12:30pm ESE 11 16 - - - - - - - 22.2 1020.0 0.0
10/12:00pm ESE 11 15 - - - - - - - 22.0 1020.3 0.0
10/11:30am ESE 11 18 - - - - - - - 21.8 1020.8 0.0
10/11:00am ESE 11 15 - - - - - - - 21.8 1021.0 0.0
10/10:30am ESE 10 15 - - - - - - - 21.3 1021.2 0.0
10/10:00am SE 8 14 - - - - - - - 21.1 1021.3 0.0
10/09:30am SE 7 13 - - - - - - - 20.5 1021.2 0.0
10/09:00am SSE 6 10 - - - - - - - 19.3 1021.1 0.0
10/08:30am S 6 10 - - - - - - - 17.6 1021.0 0.0
10/08:00am S 6 9 - - - - - - - 15.8 1020.9 0.0
10/07:30am SSW 6 9 - - - - - - - 13.9 1020.6 0.0
10/07:00am SSW 6 9 - - - - - - - 12.4 1020.3 0.0
10/06:30am SSW 6 8 - - - - - - - 11.8 1019.9 0.0
10/06:00am SSW 6 9 - - - - - - - 12.1 1019.5 0.0
10/05:30am SSW 7 9 - - - - - - - 12.3 1019.0 0.0
10/05:00am SSW 6 8 - - - - - - - 12.6 1018.7 0.0
10/04:30am SSW 6 10 - - - - - - - 13.0 1018.5 0.0
10/04:00am SSW 6 10 - - - - - - - 13.3 1018.5 0.0
10/03:30am SSW 6 9 - - - - - - - 13.3 1018.5 0.0
10/03:00am SSW 5 8 - - - - - - - 13.4 1018.7 0.0
10/02:30am SSW 5 7 - - - - - - - 13.7 1018.9 0.0
10/02:00am SSW 5 8 - - - - - - - 14.4 1019.0 0.0
10/01:30am SSW 5 7 - - - - - - - 16.3 1019.3 0.0
10/01:00am ESE 10 14 - - - - - - - 19.3 1019.4 0.0
10/12:30am E 10 16 - - - - - - - 19.3 1019.6 0.0
10/12:00am E 10 16 - - - - - - - 19.3 1019.7 0.0
 
Date/Time
EST
Wind Sea
Height
m
Swell Vis
km
Cloud Weather Temp
°C
Press
MSL
hPa
Rain since
9am
mm
Dir  Spd
kts
Gust
kts
Height
m
Period
s
Dir
09/11:30pm E 11 15 - - - - - - - 19.4 1019.9 0.0
09/11:00pm E 10 17 - - - - - - - 19.4 1020.0 0.0
09/10:30pm E 11 16 - - - - - - - 19.5 1019.9 0.0
09/10:00pm E 13 19 - - - - - - - 19.8 1019.7 0.0
09/09:30pm E 12 18 - - - - - - - 19.8 1019.5 0.0
09/09:00pm E 12 19 - - - - - - - 20.0 1019.3 0.0
09/08:30pm E 11 16 - - - - - - - 19.9 1019.0 0.0
09/08:00pm E 11 17 - - - - - - - 20.0 1018.8 0.0
09/07:30pm E 11 15 - - - - - - - 20.0 1018.4 0.0
09/07:00pm E 11 16 - - - - - - - 19.9 1017.9 0.0
09/06:30pm E 13 17 - - - - - - - 19.9 1017.5 0.0
09/06:00pm E 12 17 - - - - - - - 20.0 1017.0 0.0
09/05:30pm E 12 17 - - - - - - - 20.1 1016.7 0.0
09/05:00pm E 12 17 - - - - - - - 20.3 1016.4 0.0
09/04:30pm E 13 17 - - - - - - - 20.8 1016.2 0.0
09/04:00pm E 11 16 - - - - - - - 21.0 1016.1 0.0
09/03:30pm E 12 17 - - - - - - - 21.1 1015.9 0.0
09/03:00pm E 10 15 - - - - - - - 21.5 1016.1 0.0
09/02:30pm E 10 15 - - - - - - - 21.3 1016.3 0.0
09/02:00pm E 9 15 - - - - - - - 21.4 1016.8 0.0
09/01:30pm E 10 13 - - - - - - - 21.7 1017.3 0.0
09/01:00pm E 9 15 - - - - - - - 22.0 1017.7 0.0
09/12:30pm ESE 9 15 - - - - - - - 22.0 1018.2 0.0
09/12:00pm ESE 10 15 - - - - - - - 21.7 1018.8 0.0
09/11:30am ESE 8 14 - - - - - - - 21.9 1019.0 0.0
09/11:00am SE 7 13 - - - - - - - 21.6 1019.4 0.0
09/10:30am SE 8 12 - - - - - - - 21.2 1019.8 0.0
09/10:00am SE 7 12 - - - - - - - 21.0 1020.0 0.0
09/09:30am ESE 7 11 - - - - - - - 20.7 1019.9 0.0
09/09:00am SSE 6 10 - - - - - - - 19.8 1019.8 0.0
09/08:30am S 5 8 - - - - - - - 18.0 1019.6 0.0
09/08:00am SSW 6 9 - - - - - - - 16.1 1019.4 0.0
09/07:30am SSW 6 8 - - - - - - - 14.4 1019.1 0.0
09/07:00am SSW 5 8 - - - - - - - 13.3 1018.9 0.0
09/06:30am SSW 5 7 - - - - - - - 13.0 1018.6 0.0
09/06:00am SSW 6 8 - - - - - - - 13.0 1018.4 0.0
09/05:30am SSW 5 7 - - - - - - - 13.3 1018.4 0.0
09/05:00am SSW 6 7 - - - - - - - 13.6 1018.2 0.0
09/04:30am SSW 5 7 - - - - - - - 14.3 1018.0 0.0
09/04:00am SSW 6 8 - - - - - - - 15.0 1017.8 0.0
09/03:30am SSE 4 7 - - - - - - - 16.4 1017.6 0.0
09/03:00am ESE 11 17 - - - - - - - 19.0 1017.7 0.0
09/02:30am ESE 10 15 - - - - - - - 19.1 1018.0 0.0
09/02:00am ESE 9 15 - - - - - - - 19.2 1018.0 0.0
09/01:30am ESE 11 16 - - - - - - - 19.5 1018.2 0.0
09/01:00am ESE 11 16 - - - - - - - 19.5 1018.4 0.0
09/12:30am ESE 11 17 - - - - - - - 19.6 1018.5 0.0
09/12:00am ESE 11 16 - - - - - - - 19.9 1018.5 0.0
 
Date/Time
EST
Wind Sea
Height
m
Swell Vis
km
Cloud Weather Temp
°C
Press
MSL
hPa
Rain since
9am
mm
Dir  Spd
kts
Gust
kts
Height
m
Period
s
Dir
08/11:30pm ESE 11 18 - - - - - - - 19.9 1018.4 0.0
08/11:00pm ESE 11 18 - - - - - - - 20.0 1018.4 0.0
08/10:30pm ESE 12 17 - - - - - - - 20.2 1018.3 0.0
08/10:00pm E 13 18 - - - - - - - 20.5 1018.2 0.0
08/09:30pm ESE 13 19 - - - - - - - 20.7 1018.0 0.0
08/09:00pm E 12 19 - - - - - - - 20.8 1017.9 0.0
08/08:30pm E 13 18 - - - - - - - 20.8 1017.6 0.0
08/08:00pm E 12 17 - - - - - - - 20.8 1017.2 0.0
08/07:30pm E 12 18 - - - - - - - 21.0 1016.9 0.0
08/07:00pm E 12 16 - - - - - - - 21.0 1016.6 0.0
08/06:30pm E 12 17 - - - - - - - 21.0 1016.2 0.0
08/06:00pm E 12 18 - - - - - - - 21.1 1015.9 0.0
08/05:30pm E 13 17 - - - - - - - 21.1 1015.6 0.0
08/05:00pm E 12 17 - - - - - - - 21.4 1015.5 0.0
08/04:30pm ENE 14 18 - - - - - - - 21.6 1015.3 0.0
08/04:00pm E 12 17 - - - - - - - 22.6 1015.1 0.0
08/03:30pm E 12 18 - - - - - - - 22.6 1014.9 0.0
08/03:00pm E 11 16 - - - - - - - 22.6 1014.9 0.0
08/02:30pm E 11 16 - - - - - - - 23.2 1015.1 0.0
08/02:00pm E 12 17 - - - - - - - 23.2 1015.4 0.0
08/01:30pm E 11 16 - - - - - - - 23.2 1015.9 0.0
08/01:00pm E 10 16 - - - - - - - 23.2 1016.4 0.0
08/12:30pm E 11 17 - - - - - - - 23.0 1016.9 0.0
08/12:00pm E 12 19 - - - - - - - 23.5 1017.3 0.0
08/11:30am ESE 12 18 - - - - - - - 23.2 1017.5 0.0
08/11:00am ESE 11 16 - - - - - - - 22.9 1017.8 0.0
08/10:30am E 11 17 - - - - - - - 23.2 1018.1 0.0
08/10:00am ESE 10 15 - - - - - - - 22.6 1018.4 0.0
08/09:30am ESE 9 16 - - - - - - - 22.5 1018.4 0.0
08/09:00am ESE 9 15 - - - - - - - 22.2 1018.3 0.0
08/08:30am ESE 9 15 - - - - - - - 21.5 1018.1 0.0
08/08:00am ESE 9 14 - - - - - - - 21.2 1017.7 0.0
08/07:30am SSE 5 11 - - - - - - - 20.5 1017.4 0.0
08/07:00am SE 5 11 - - - - - - - 20.4 1017.2 0.0
08/06:30am S 4 8 - - - - - - - 20.3 1016.8 0.0
08/06:00am SE 7 12 - - - - - - - 20.6 1016.5 0.0
08/05:30am SE 8 13 - - - - - - - 20.7 1016.0 0.0
08/05:00am ESE 9 13 - - - - - - - 20.7 1015.6 0.0
08/04:30am ESE 9 14 - - - - - - - 20.8 1015.4 0.0
08/04:00am SE 7 12 - - - - - - - 20.9 1015.3 0.0
08/03:30am SE 7 12 - - - - - - - 21.1 1015.4 0.0
08/03:00am ESE 7 11 - - - - - - - 21.2 1015.4 0.0
08/02:30am ESE 6 10 - - - - - - - 21.2 1015.6 0.0
08/02:00am ESE 9 13 - - - - - - - 21.3 1015.7 0.0
08/01:30am ESE 8 12 - - - - - - - 21.3 1015.9 0.0

Other formats

Comma delimited format used in spreadsheet applications
http://www.bom.gov.au/fwo/IDQ60701/IDQ60701.95296.axf

JavaScript Object Notation format (JSON) in row-major order
http://www.bom.gov.au/fwo/IDQ60701/IDQ60701.95296.json

Data quality

Most of these data are generated automatically and are frequently updated. Quality checks on data are not normally performed. It is possible for incorrect values to appear. Refer to information at About Latest Weather Observations and please check the disclaimer before using these data.